Airport View

Enter AWOS ICAO identifier for current METAR.

ex. KFNL

KOLE 171255Z AUTO 14003KT 10SM CLR M06/M18 A3019 RMK AO2

17 Nov 2019 13:05

Frequency: 118.375

Phone: 716-557-2001

Other Area AWOS: KELZ - KBFD - KDSV - KJHW

TAF KBFD 171159Z 1712/1812 14006KT P6SM SKC FM171400 14010G18KT P6SM SKC FM180000 14006KT P6SM SCT022 FM180600 14003KT P6SM OVC015